Time;durP1;ratioP1;P1;durP2;ratioP2;P2;SDS_P1;SDS_P2;PMS_P1;PMS_P2;Temp;Humidity;BMP_temperature;BMP_pressure;BME280_temperature;BME280_humidity;BME280_pressure;Samples;Min_cycle;Max_cycle;Signal;HPM_P1;HPM_P2
2023/05/18 00:01:02;;;;;;;28.85;13.13;;;;;;;;;;6185427;28;20064;-58
2023/05/18 00:04:04;;;;;;;23.45;12.60;;;;;;;;;;6183780;28;20531;-60
2023/05/18 00:07:05;;;;;;;23.80;12.73;;;;;;;;;;6183045;28;20631;-60
2023/05/18 00:10:07;;;;;;;28.15;12.02;;;;;;;;;;6182497;28;20035;-59
2023/05/18 00:13:07;;;;;;;20.63;11.57;;;;;;;;;;6182288;28;20069;-60
2023/05/18 00:16:10;;;;;;;22.92;11.00;;;;;;;;;;6180666;28;20678;-61
2023/05/18 00:19:13;;;;;;;28.35;11.30;;;;;;;;;;6185857;28;20050;-58
2023/05/18 00:22:18;;;;;;;23.17;10.90;;;;;;;;;;6185684;28;20104;-59
2023/05/18 00:25:18;;;;;;;25.17;11.07;;;;;;;;;;6182301;28;20042;-60
2023/05/18 00:28:19;;;;;;;24.00;11.18;;;;;;;;;;6185047;28;20046;-60
2023/05/18 00:31:20;;;;;;;25.55;11.07;;;;;;;;;;6185222;28;20787;-60
2023/05/18 00:34:20;;;;;;;21.63;10.05;;;;;;;;;;6183114;28;20113;-60
2023/05/18 00:37:21;;;;;;;19.75;9.82;;;;;;;;;;6185372;28;20085;-60
2023/05/18 00:40:25;;;;;;;20.10;10.00;;;;;;;;;;6184176;28;20070;-61
2023/05/18 00:43:25;;;;;;;19.10;10.32;;;;;;;;;;6185687;28;20057;-60
2023/05/18 00:46:27;;;;;;;23.45;11.50;;;;;;;;;;6184433;28;20042;-60
2023/05/18 00:49:28;;;;;;;27.88;10.98;;;;;;;;;;6185998;28;20047;-55
2023/05/18 00:52:29;;;;;;;26.25;10.50;;;;;;;;;;6187010;28;20140;-61
2023/05/18 00:55:29;;;;;;;25.48;10.27;;;;;;;;;;6183990;28;20650;-59
2023/05/18 00:58:30;;;;;;;19.65;9.50;;;;;;;;;;6184226;28;20074;-60
2023/05/18 01:01:35;;;;;;;22.38;9.88;;;;;;;;;;6180854;28;20034;-61
2023/05/18 01:04:36;;;;;;;19.15;8.70;;;;;;;;;;6179861;28;20051;-59
2023/05/18 01:07:41;;;;;;;16.83;8.45;;;;;;;;;;6214760;28;20046;-60
2023/05/18 01:10:42;;;;;;;17.73;9.07;;;;;;;;;;6187075;28;20046;-60
2023/05/18 01:14:11;;;;;;;19.30;8.70;;;;;;;;;;6184940;28;20053;-60
2023/05/18 01:17:27;;;;;;;19.85;8.65;;;;;;;;;;6176077;28;20054;-58
2023/05/18 01:20:36;;;;;;;20.13;8.52;;;;;;;;;;6183340;28;20054;-59
2023/05/18 01:23:43;;;;;;;19.13;8.55;;;;;;;;;;6184653;28;20046;-61
2023/05/18 01:26:46;;;;;;;19.67;9.00;;;;;;;;;;6185309;28;20584;-59
2023/05/18 01:29:47;;;;;;;18.98;8.32;;;;;;;;;;6183398;28;20420;-59
2023/05/18 01:32:48;;;;;;;17.55;8.43;;;;;;;;;;6188282;28;20042;-59
2023/05/18 01:35:49;;;;;;;18.60;8.60;;;;;;;;;;6190686;28;20061;-58
2023/05/18 01:38:50;;;;;;;20.33;8.13;;;;;;;;;;6187391;28;20057;-59
2023/05/18 01:42:05;;;;;;;17.65;7.60;;;;;;;;;;6189811;28;20076;-60
2023/05/18 01:45:12;;;;;;;18.30;7.70;;;;;;;;;;6191536;28;20382;-61
2023/05/18 01:48:19;;;;;;;21.75;7.90;;;;;;;;;;6187656;28;20434;-59
2023/05/18 01:51:21;;;;;;;21.55;8.65;;;;;;;;;;6186248;28;20046;-59
2023/05/18 01:54:23;;;;;;;20.10;7.80;;;;;;;;;;6188312;28;20100;-57
2023/05/18 01:57:27;;;;;;;24.17;7.43;;;;;;;;;;6185627;28;20417;-59
2023/05/18 02:00:29;;;;;;;20.40;7.50;;;;;;;;;;6186967;28;20051;-58
2023/05/18 02:03:32;;;;;;;18.33;7.43;;;;;;;;;;6189143;28;20046;-59
2023/05/18 02:06:33;;;;;;;18.25;7.05;;;;;;;;;;6186400;28;20042;-58
2023/05/18 02:09:33;;;;;;;20.73;7.15;;;;;;;;;;6187268;28;20042;-58
2023/05/18 02:12:35;;;;;;;18.35;7.35;;;;;;;;;;6187797;28;20049;-61
2023/05/18 02:15:35;;;;;;;20.25;7.40;;;;;;;;;;6188130;28;20046;-60
2023/05/18 02:18:37;;;;;;;14.40;6.75;;;;;;;;;;6188395;28;20042;-61
2023/05/18 02:21:38;;;;;;;15.57;6.10;;;;;;;;;;6186939;28;20085;-58
2023/05/18 02:24:39;;;;;;;17.90;7.00;;;;;;;;;;6187578;28;20049;-60
2023/05/18 02:27:39;;;;;;;18.77;8.13;;;;;;;;;;6189105;28;20778;-59
2023/05/18 02:30:40;;;;;;;16.13;7.10;;;;;;;;;;6186401;28;20050;-60
2023/05/18 02:33:41;;;;;;;21.60;6.60;;;;;;;;;;6186136;28;20042;-58
2023/05/18 02:36:42;;;;;;;19.02;7.07;;;;;;;;;;6186025;28;20058;-57
2023/05/18 02:39:42;;;;;;;16.90;7.47;;;;;;;;;;6188280;28;20050;-60
2023/05/18 02:42:43;;;;;;;17.25;6.47;;;;;;;;;;6188776;28;20052;-62
2023/05/18 02:45:43;;;;;;;21.15;7.30;;;;;;;;;;6190028;28;20042;-58
2023/05/18 02:48:44;;;;;;;16.60;6.70;;;;;;;;;;6186288;28;20073;-59
2023/05/18 02:51:44;;;;;;;18.00;6.20;;;;;;;;;;6185019;28;20057;-59
2023/05/18 02:54:45;;;;;;;15.20;6.40;;;;;;;;;;6187821;28;20494;-56
2023/05/18 02:57:46;;;;;;;14.55;6.43;;;;;;;;;;6187105;28;20049;-59
2023/05/18 03:00:48;;;;;;;16.52;6.88;;;;;;;;;;6188087;28;20141;-58
2023/05/18 03:03:50;;;;;;;18.45;7.20;;;;;;;;;;6188495;28;20513;-60
2023/05/18 03:06:51;;;;;;;16.60;7.28;;;;;;;;;;6186100;28;20061;-55
2023/05/18 03:09:52;;;;;;;16.65;7.32;;;;;;;;;;6185165;28;20336;-61
2023/05/18 03:12:53;;;;;;;21.95;8.60;;;;;;;;;;6187115;28;20042;-58
2023/05/18 03:15:55;;;;;;;20.70;7.95;;;;;;;;;;6185750;28;20540;-57
2023/05/18 03:19:00;;;;;;;17.00;7.45;;;;;;;;;;6185268;28;20053;-58
2023/05/18 03:22:02;;;;;;;17.92;7.57;;;;;;;;;;6186483;28;20420;-58
2023/05/18 03:25:04;;;;;;;19.42;7.55;;;;;;;;;;6188576;28;20050;-58
2023/05/18 03:28:04;;;;;;;33.85;10.95;;;;;;;;;;6185504;28;20170;-55
2023/05/18 03:31:05;;;;;;;28.00;10.27;;;;;;;;;;6184092;28;20078;-58
2023/05/18 03:34:06;;;;;;;32.13;11.82;;;;;;;;;;6187841;28;20077;-58
2023/05/18 03:37:07;;;;;;;32.72;11.77;;;;;;;;;;6190411;28;20050;-59
2023/05/18 03:40:10;;;;;;;28.77;9.35;;;;;;;;;;6186785;28;20050;-59
2023/05/18 03:43:11;;;;;;;33.05;11.18;;;;;;;;;;6187071;28;20047;-58
2023/05/18 03:46:11;;;;;;;27.10;9.05;;;;;;;;;;6185950;28;20050;-58
2023/05/18 03:49:12;;;;;;;26.42;8.65;;;;;;;;;;6184933;28;20077;-59
2023/05/18 03:52:14;;;;;;;24.40;8.20;;;;;;;;;;6184617;28;20375;-59
2023/05/18 03:55:16;;;;;;;24.38;8.00;;;;;;;;;;6184160;28;20057;-57
2023/05/18 03:58:18;;;;;;;23.38;7.53;;;;;;;;;;6184442;28;20054;-57
2023/05/18 04:01:22;;;;;;;20.52;6.93;;;;;;;;;;6191210;28;20490;-58
2023/05/18 04:04:26;;;;;;;25.90;8.35;;;;;;;;;;6190731;28;20042;-59
2023/05/18 04:07:26;;;;;;;25.30;9.65;;;;;;;;;;6186149;28;20046;-60
2023/05/18 04:10:27;;;;;;;29.52;10.88;;;;;;;;;;6184329;28;20042;-59
2023/05/18 04:13:28;;;;;;;25.23;11.05;;;;;;;;;;6185610;28;20073;-59
2023/05/18 04:16:28;;;;;;;18.20;7.85;;;;;;;;;;6184096;28;20034;-58
2023/05/18 04:19:37;;;;;;;15.48;7.18;;;;;;;;;;6185108;28;20690;-60
2023/05/18 04:22:42;;;;;;;22.63;7.70;;;;;;;;;;6184847;28;20077;-57
2023/05/18 04:25:42;;;;;;;19.65;6.68;;;;;;;;;;6190384;28;20073;-60
2023/05/18 04:28:43;;;;;;;19.13;6.75;;;;;;;;;;6187361;28;20133;-60
2023/05/18 04:31:47;;;;;;;19.02;6.40;;;;;;;;;;6183591;28;20074;-60
2023/05/18 04:34:48;;;;;;;16.08;7.30;;;;;;;;;;6183208;28;20224;-58
2023/05/18 04:37:49;;;;;;;21.40;9.23;;;;;;;;;;6189607;28;20054;-60
2023/05/18 04:40:50;;;;;;;23.20;9.90;;;;;;;;;;6187232;28;20421;-58
2023/05/18 04:43:51;;;;;;;21.38;9.82;;;;;;;;;;6190737;28;20038;-59
2023/05/18 04:46:52;;;;;;;21.38;9.05;;;;;;;;;;6191412;28;20525;-60
2023/05/18 04:49:54;;;;;;;18.77;8.60;;;;;;;;;;6190525;28;20415;-59
2023/05/18 04:52:56;;;;;;;20.60;7.57;;;;;;;;;;6190154;28;20045;-59
2023/05/18 04:55:57;;;;;;;;;;;;;;;;;;6184013;28;20042;-60
2023/05/18 04:58:58;;;;;;;17.85;8.48;;;;;;;;;;6190600;28;20424;-59
2023/05/18 05:01:59;;;;;;;18.30;7.28;;;;;;;;;;6189801;28;20043;-61
2023/05/18 05:04:59;;;;;;;22.05;7.97;;;;;;;;;;6191470;28;20057;-66
2023/05/18 05:08:00;;;;;;;19.92;8.55;;;;;;;;;;6192050;28;20420;-61
2023/05/18 05:11:00;;;;;;;16.17;7.85;;;;;;;;;;6189689;28;20042;-60
2023/05/18 05:14:01;;;;;;;21.33;8.63;;;;;;;;;;6193088;28;20047;-59
2023/05/18 05:17:02;;;;;;;19.00;9.00;;;;;;;;;;6195970;28;20055;-60
2023/05/18 05:20:03;;;;;;;18.63;7.82;;;;;;;;;;6192706;28;20061;-60
2023/05/18 05:23:04;;;;;;;22.70;8.48;;;;;;;;;;6192847;28;20498;-60
2023/05/18 05:26:05;;;;;;;16.85;7.80;;;;;;;;;;6194146;28;20049;-59
2023/05/18 05:29:05;;;;;;;26.58;8.32;;;;;;;;;;6193580;28;20059;-60
2023/05/18 05:32:06;;;;;;;20.38;7.53;;;;;;;;;;6194139;28;20043;-60
2023/05/18 05:35:07;;;;;;;17.17;7.32;;;;;;;;;;6181526;28;20053;-60
2023/05/18 05:38:07;;;;;;;17.42;8.32;;;;;;;;;;6193499;28;20504;-58
2023/05/18 05:41:08;;;;;;;17.40;6.75;;;;;;;;;;6189408;28;20081;-59
2023/05/18 05:44:09;;;;;;;16.85;6.90;;;;;;;;;;6190286;28;20233;-59
2023/05/18 05:47:09;;;;;;;20.48;8.07;;;;;;;;;;6190780;28;20528;-60
2023/05/18 05:50:10;;;;;;;16.33;6.72;;;;;;;;;;6190247;28;20156;-60
2023/05/18 05:53:11;;;;;;;15.13;6.47;;;;;;;;;;6189735;28;20484;-60
2023/05/18 05:56:12;;;;;;;18.65;7.55;;;;;;;;;;6187558;28;20049;-60
2023/05/18 05:59:12;;;;;;;19.20;8.02;;;;;;;;;;6185953;28;20605;-60
2023/05/18 06:02:13;;;;;;;18.25;7.20;;;;;;;;;;6187848;28;20054;-59
2023/05/18 06:05:13;;;;;;;16.73;6.25;;;;;;;;;;6190270;28;20532;-60
2023/05/18 06:08:15;;;;;;;16.25;7.25;;;;;;;;;;6189281;28;20054;-61
2023/05/18 06:11:16;;;;;;;17.15;6.93;;;;;;;;;;6188830;28;20134;-60
2023/05/18 06:14:16;;;;;;;13.27;6.30;;;;;;;;;;6188923;28;20505;-59
2023/05/18 06:17:17;;;;;;;18.33;6.82;;;;;;;;;;6190929;28;20041;-60
2023/05/18 06:20:18;;;;;;;17.67;7.15;;;;;;;;;;6187846;28;20035;-60
2023/05/18 06:23:21;;;;;;;17.42;7.20;;;;;;;;;;6188743;28;20038;-60
2023/05/18 06:26:22;;;;;;;17.75;7.13;;;;;;;;;;6191464;28;20223;-60
2023/05/18 06:29:22;;;;;;;18.75;7.53;;;;;;;;;;6184210;28;20075;-60
2023/05/18 06:32:23;;;;;;;19.45;8.32;;;;;;;;;;6194963;28;20138;-60
2023/05/18 06:35:24;;;;;;;19.92;9.50;;;;;;;;;;6186920;28;20420;-59
2023/05/18 06:38:25;;;;;;;21.65;7.88;;;;;;;;;;6191015;28;20058;-60
2023/05/18 06:41:25;;;;;;;17.30;7.72;;;;;;;;;;6189896;28;20042;-59
2023/05/18 06:44:26;;;;;;;16.33;6.68;;;;;;;;;;6191310;28;20093;-59
2023/05/18 06:47:26;;;;;;;16.73;6.35;;;;;;;;;;6190330;28;20046;-59
2023/05/18 06:50:27;;;;;;;16.70;6.18;;;;;;;;;;6188156;28;20046;-59
2023/05/18 06:53:30;;;;;;;14.65;6.45;;;;;;;;;;6190948;28;20042;-60
2023/05/18 06:56:31;;;;;;;19.15;6.18;;;;;;;;;;6191376;28;20048;-60
2023/05/18 06:59:31;;;;;;;12.32;5.32;;;;;;;;;;6190955;28;20042;-60
2023/05/18 07:02:32;;;;;;;14.27;5.20;;;;;;;;;;6191872;28;20453;-57
2023/05/18 07:05:32;;;;;;;12.93;5.70;;;;;;;;;;6191620;28;20050;-60
2023/05/18 07:08:35;;;;;;;11.60;4.28;;;;;;;;;;6191327;28;20500;-59
2023/05/18 07:11:36;;;;;;;8.45;3.50;;;;;;;;;;6190747;28;20096;-59
2023/05/18 07:14:37;;;;;;;12.15;3.63;;;;;;;;;;6192089;28;20039;-60
2023/05/18 07:17:37;;;;;;;11.73;3.70;;;;;;;;;;6191376;28;20061;-60
2023/05/18 07:20:38;;;;;;;8.75;4.45;;;;;;;;;;6190302;28;20039;-60
2023/05/18 07:23:39;;;;;;;8.13;4.00;;;;;;;;;;6189829;28;20057;-61
2023/05/18 07:26:39;;;;;;;10.55;3.72;;;;;;;;;;6187121;28;20086;-60
2023/05/18 07:29:40;;;;;;;11.02;4.15;;;;;;;;;;6184922;28;20046;-57
2023/05/18 07:32:44;;;;;;;10.00;4.23;;;;;;;;;;6186205;28;20064;-59
2023/05/18 07:35:44;;;;;;;9.15;3.97;;;;;;;;;;6187179;28;20249;-59
2023/05/18 07:38:45;;;;;;;11.00;4.30;;;;;;;;;;6186701;28;20051;-60
2023/05/18 07:41:47;;;;;;;13.45;5.07;;;;;;;;;;6187031;28;20042;-59
2023/05/18 07:44:47;;;;;;;;;;;;;;;;;;6188401;28;20053;-58
2023/05/18 07:47:48;;;;;;;9.38;3.67;;;;;;;;;;6187815;28;19925;-60
2023/05/18 07:50:49;;;;;;;8.93;4.32;;;;;;;;;;6185792;28;20051;-60
2023/05/18 07:53:49;;;;;;;10.07;4.50;;;;;;;;;;6186245;28;20185;-60
2023/05/18 07:56:50;;;;;;;13.35;5.25;;;;;;;;;;6185319;28;20129;-58
2023/05/18 07:59:50;;;;;;;10.68;4.93;;;;;;;;;;6186389;28;20035;-59
2023/05/18 08:02:51;;;;;;;10.68;5.00;;;;;;;;;;6186762;28;20093;-59
2023/05/18 08:05:52;;;;;;;17.75;5.70;;;;;;;;;;6185928;28;20049;-59
2023/05/18 08:08:52;;;;;;;14.85;5.90;;;;;;;;;;6184021;28;20140;-60
2023/05/18 08:11:53;;;;;;;14.82;6.20;;;;;;;;;;6186332;28;20509;-60
2023/05/18 08:14:55;;;;;;;14.18;6.10;;;;;;;;;;6187206;28;20050;-59
2023/05/18 08:17:55;;;;;;;11.97;5.40;;;;;;;;;;6187010;28;20038;-59
2023/05/18 08:20:56;;;;;;;9.98;4.63;;;;;;;;;;6184706;28;20486;-61
2023/05/18 08:23:57;;;;;;;13.88;6.00;;;;;;;;;;6185211;28;20046;-61
2023/05/18 08:26:57;;;;;;;15.25;5.93;;;;;;;;;;6191161;28;20086;-60
2023/05/18 08:29:58;;;;;;;12.63;5.75;;;;;;;;;;6186599;28;20365;-61
2023/05/18 08:32:58;;;;;;;12.60;5.95;;;;;;;;;;6186660;28;20522;-57
2023/05/18 08:35:59;;;;;;;12.35;5.93;;;;;;;;;;6186194;28;20046;-60
2023/05/18 08:39:01;;;;;;;13.68;5.25;;;;;;;;;;6183881;28;20162;-58
2023/05/18 08:42:25;;;;;;;12.73;5.13;;;;;;;;;;6189045;28;20509;-60
2023/05/18 08:45:35;;;;;;;8.63;3.72;;;;;;;;;;6191084;28;20637;-59
2023/05/18 08:48:36;;;;;;;8.00;3.28;;;;;;;;;;6190296;28;20472;-61
2023/05/18 08:51:37;;;;;;;8.02;3.00;;;;;;;;;;6189960;28;20046;-59
2023/05/18 08:54:39;;;;;;;13.27;3.53;;;;;;;;;;6190337;28;20113;-59
2023/05/18 08:57:41;;;;;;;;;;;;;;;;;;6189485;28;20042;-60
2023/05/18 09:00:41;;;;;;;8.77;2.83;;;;;;;;;;6189955;28;20368;-60
2023/05/18 09:03:45;;;;;;;6.10;2.92;;;;;;;;;;6190391;28;20045;-61
2023/05/18 09:06:46;;;;;;;7.47;2.90;;;;;;;;;;6186485;28;20054;-60
2023/05/18 09:09:47;;;;;;;9.80;4.07;;;;;;;;;;6189132;28;20118;-60
2023/05/18 09:12:49;;;;;;;9.95;5.38;;;;;;;;;;6190092;28;20038;-57
2023/05/18 09:15:50;;;;;;;11.18;4.68;;;;;;;;;;6187576;28;20050;-60
2023/05/18 09:18:51;;;;;;;12.15;5.68;;;;;;;;;;6190929;28;20089;-60
2023/05/18 09:21:52;;;;;;;14.27;5.30;;;;;;;;;;6186622;28;20733;-58
2023/05/18 09:24:52;;;;;;;11.63;5.05;;;;;;;;;;6187917;28;20050;-60
2023/05/18 09:27:54;;;;;;;11.15;4.53;;;;;;;;;;6187981;28;21248;-60
2023/05/18 09:30:55;;;;;;;13.30;4.60;;;;;;;;;;6186149;28;20043;-60
2023/05/18 09:33:57;;;;;;;9.43;4.55;;;;;;;;;;6187853;28;20042;-59
2023/05/18 09:36:58;;;;;;;13.25;4.78;;;;;;;;;;6189494;28;20586;-60
2023/05/18 09:39:59;;;;;;;9.07;4.22;;;;;;;;;;6191122;28;20415;-60
2023/05/18 09:43:05;;;;;;;8.35;4.13;;;;;;;;;;6188194;28;20035;-60
2023/05/18 09:46:07;;;;;;;7.78;4.05;;;;;;;;;;6188606;28;20042;-60
2023/05/18 09:49:08;;;;;;;8.80;4.05;;;;;;;;;;6190790;28;20046;-59
2023/05/18 09:52:09;;;;;;;20.27;8.40;;;;;;;;;;6186373;28;20034;-60
2023/05/18 09:55:11;;;;;;;13.73;5.85;;;;;;;;;;6187161;28;20066;-60
2023/05/18 09:58:12;;;;;;;12.25;5.03;;;;;;;;;;6189162;28;20442;-60
2023/05/18 10:01:12;;;;;;;11.50;4.93;;;;;;;;;;6185393;28;20053;-60
2023/05/18 10:04:13;;;;;;;10.30;4.10;;;;;;;;;;6189080;28;20043;-59
2023/05/18 10:07:15;;;;;;;9.70;4.15;;;;;;;;;;6188383;28;20053;-59
2023/05/18 10:10:20;;;;;;;11.27;4.65;;;;;;;;;;6184192;28;20062;-59
2023/05/18 10:13:25;;;;;;;12.90;5.10;;;;;;;;;;6186956;28;20047;-60
2023/05/18 10:16:25;;;;;;;25.90;10.25;;;;;;;;;;6187715;28;20046;-60
2023/05/18 10:19:27;;;;;;;18.92;7.72;;;;;;;;;;6189757;28;20045;-61
2023/05/18 10:22:28;;;;;;;32.67;11.47;;;;;;;;;;6185661;28;20042;-59
2023/05/18 10:25:28;;;;;;;15.80;6.63;;;;;;;;;;6187459;28;20049;-59
2023/05/18 10:28:35;;;;;;;31.88;12.82;;;;;;;;;;6186941;28;20461;-60
2023/05/18 10:31:37;;;;;;;31.40;13.52;;;;;;;;;;6186288;28;20137;-59
2023/05/18 10:34:39;;;;;;;;;;;;;;;;;;6189057;28;20061;-59
2023/05/18 10:37:46;;;;;;;12.35;5.13;;;;;;;;;;6186415;28;20300;-60
2023/05/18 10:40:48;;;;;;;11.55;6.75;;;;;;;;;;6184271;28;20054;-61
2023/05/18 10:43:49;;;;;;;;;;;;;;;;;;6186714;28;20510;-60
2023/05/18 10:46:50;;;;;;;14.50;5.97;;;;;;;;;;6185671;28;20381;-60
2023/05/18 10:49:51;;;;;;;10.88;4.82;;;;;;;;;;6186666;28;20049;-60
2023/05/18 10:52:52;;;;;;;13.25;6.30;;;;;;;;;;6186927;28;20042;-60
2023/05/18 10:55:53;;;;;;;14.15;6.05;;;;;;;;;;6188425;28;20501;-60
2023/05/18 10:58:54;;;;;;;14.32;6.13;;;;;;;;;;6186470;28;20057;-60
2023/05/18 11:01:56;;;;;;;17.03;6.53;;;;;;;;;;6183781;28;20133;-60
2023/05/18 11:04:57;;;;;;;;;;;;;;;;;;6185756;28;20711;-61
2023/05/18 11:08:04;;;;;;;18.50;6.20;;;;;;;;;;6185518;28;20202;-60
2023/05/18 11:11:06;;;;;;;15.10;6.40;;;;;;;;;;6184274;28;20105;-59
2023/05/18 11:14:08;;;;;;;11.52;5.18;;;;;;;;;;6185072;28;20117;-66
2023/05/18 11:17:24;;;;;;;18.17;7.63;;;;;;;;;;6187372;28;20096;-61
2023/05/18 11:20:24;;;;;;;11.55;5.05;;;;;;;;;;6187999;28;20038;-60
2023/05/18 11:23:25;;;;;;;15.07;5.60;;;;;;;;;;6184659;28;20448;-60
2023/05/18 11:26:27;;;;;;;13.98;6.32;;;;;;;;;;6186566;28;20054;-58
2023/05/18 11:29:36;;;;;;;11.07;4.38;;;;;;;;;;6186139;28;20138;-60
2023/05/18 11:32:36;;;;;;;10.60;4.18;;;;;;;;;;6185268;28;20038;-60
2023/05/18 11:35:56;;;;;;;9.60;4.75;;;;;;;;;;6183978;28;20432;-60
2023/05/18 11:39:05;;;;;;;15.10;3.92;;;;;;;;;;6187278;28;20478;-60
2023/05/18 11:42:09;;;;;;;10.23;4.07;;;;;;;;;;6186033;28;20038;-60
2023/05/18 11:45:11;;;;;;;9.70;3.15;;;;;;;;;;6185283;28;20136;-59
2023/05/18 11:48:12;;;;;;;8.95;3.40;;;;;;;;;;6186058;28;20054;-59
2023/05/18 11:51:12;;;;;;;9.48;3.55;;;;;;;;;;6188267;28;20112;-60
2023/05/18 11:54:13;;;;;;;8.23;3.88;;;;;;;;;;6187978;28;20057;-60
2023/05/18 11:57:16;;;;;;;7.97;3.47;;;;;;;;;;6185791;28;20413;-60
2023/05/18 12:00:18;;;;;;;11.98;3.92;;;;;;;;;;6185977;28;20050;-60
2023/05/18 12:03:24;;;;;;;9.95;4.13;;;;;;;;;;6183720;28;20062;-60
2023/05/18 12:06:26;;;;;;;10.48;4.82;;;;;;;;;;6183946;28;20849;-60
2023/05/18 12:09:30;;;;;;;12.18;5.80;;;;;;;;;;6183590;28;20073;-60
2023/05/18 12:12:32;;;;;;;10.68;4.47;;;;;;;;;;6183349;28;20049;-59
2023/05/18 12:15:34;;;;;;;;;;;;;;;;;;6183666;28;20556;-59
2023/05/18 12:18:35;;;;;;;13.27;6.70;;;;;;;;;;6183256;28;19973;-60
2023/05/18 12:21:35;;;;;;;12.30;5.43;;;;;;;;;;6182300;28;20042;-60
2023/05/18 12:24:38;;;;;;;22.35;7.43;;;;;;;;;;6186416;28;20045;-60
2023/05/18 12:27:39;;;;;;;;;;;;;;;;;;6186278;28;20529;-60
2023/05/18 12:30:42;;;;;;;11.85;4.82;;;;;;;;;;6187063;28;19921;-60
2023/05/18 12:33:43;;;;;;;10.32;5.95;;;;;;;;;;6182943;28;20046;-60
2023/05/18 12:36:54;;;;;;;10.82;5.30;;;;;;;;;;6183953;28;20042;-59
2023/05/18 12:39:56;;;;;;;12.27;5.50;;;;;;;;;;6185379;28;20084;-60
2023/05/18 12:42:58;;;;;;;12.73;6.25;;;;;;;;;;6186336;28;20181;-60
2023/05/18 12:46:00;;;;;;;;;;;;;;;;;;6184913;28;20041;-59
2023/05/18 12:49:03;;;;;;;12.77;5.72;;;;;;;;;;6184772;28;19933;-60
2023/05/18 12:52:09;;;;;;;13.38;6.40;;;;;;;;;;6188553;28;20449;-60
2023/05/18 12:55:20;;;;;;;17.38;7.50;;;;;;;;;;6187867;28;21078;-60
2023/05/18 12:58:20;;;;;;;15.30;7.20;;;;;;;;;;6186799;28;20068;-61
2023/05/18 13:01:23;;;;;;;12.80;6.85;;;;;;;;;;6184774;28;20085;-60
2023/05/18 13:04:34;;;;;;;16.58;7.93;;;;;;;;;;6187211;28;20077;-60
2023/05/18 13:07:42;;;;;;;15.03;7.33;;;;;;;;;;6185312;28;20061;-60
2023/05/18 13:10:44;;;;;;;14.98;6.00;;;;;;;;;;6185895;28;20431;-60
2023/05/18 13:13:58;;;;;;;10.45;5.75;;;;;;;;;;6185549;28;20051;-60
2023/05/18 13:16:58;;;;;;;14.73;5.95;;;;;;;;;;6185101;28;20046;-61
2023/05/18 13:19:59;;;;;;;12.75;6.32;;;;;;;;;;6183227;28;20047;-61
2023/05/18 13:23:08;;;;;;;12.27;5.72;;;;;;;;;;6185479;28;20054;-60
2023/05/18 13:26:09;;;;;;;13.10;4.80;;;;;;;;;;6185912;28;20112;-60
2023/05/18 13:29:09;;;;;;;12.25;6.10;;;;;;;;;;6185378;28;20206;-60
2023/05/18 13:32:10;;;;;;;10.38;5.35;;;;;;;;;;6190463;28;20058;-60
2023/05/18 13:35:12;;;;;;;13.27;5.57;;;;;;;;;;6192305;28;20559;-59
2023/05/18 13:38:13;;;;;;;10.45;4.82;;;;;;;;;;6192030;28;20062;-60
2023/05/18 13:41:14;;;;;;;8.40;4.60;;;;;;;;;;6189886;28;20046;-60
2023/05/18 13:44:16;;;;;;;11.48;5.97;;;;;;;;;;6190413;28;20409;-60
2023/05/18 13:47:18;;;;;;;11.50;4.93;;;;;;;;;;6192205;28;20137;-60
2023/05/18 13:50:19;;;;;;;11.80;5.20;;;;;;;;;;6190655;28;20054;-60
2023/05/18 13:53:20;;;;;;;13.75;6.00;;;;;;;;;;6190739;28;20517;-60
2023/05/18 13:56:21;;;;;;;11.35;5.70;;;;;;;;;;6188111;28;20061;-60
2023/05/18 13:59:22;;;;;;;11.10;4.72;;;;;;;;;;6188136;28;20049;-60
2023/05/18 14:02:23;;;;;;;8.68;4.03;;;;;;;;;;6189705;28;20054;-61
2023/05/18 14:05:24;;;;;;;9.63;3.70;;;;;;;;;;6188620;28;20632;-60
2023/05/18 14:08:25;;;;;;;9.40;3.90;;;;;;;;;;6188709;28;20545;-60
2023/05/18 14:11:25;;;;;;;8.70;3.78;;;;;;;;;;6189476;28;20063;-61
2023/05/18 14:14:26;;;;;;;11.13;4.38;;;;;;;;;;6190393;28;20053;-59
2023/05/18 14:17:28;;;;;;;8.60;3.90;;;;;;;;;;6190224;28;20050;-63
2023/05/18 14:20:29;;;;;;;8.15;2.80;;;;;;;;;;6188215;28;20567;-59
2023/05/18 14:23:29;;;;;;;8.40;3.58;;;;;;;;;;6192446;28;20062;-62
2023/05/18 14:26:30;;;;;;;5.93;2.70;;;;;;;;;;6192026;28;20078;-61
2023/05/18 14:29:32;;;;;;;6.95;3.10;;;;;;;;;;6186262;28;20050;-62
2023/05/18 14:32:33;;;;;;;8.65;2.88;;;;;;;;;;6184376;28;20065;-60
2023/05/18 14:35:33;;;;;;;5.70;3.03;;;;;;;;;;6184488;28;20461;-60
2023/05/18 14:38:34;;;;;;;7.80;2.97;;;;;;;;;;6186098;28;20046;-59
2023/05/18 14:41:34;;;;;;;8.68;2.58;;;;;;;;;;6184971;28;20042;-61
2023/05/18 14:44:35;;;;;;;7.15;3.35;;;;;;;;;;6183814;28;20125;-61
2023/05/18 14:47:35;;;;;;;6.88;2.72;;;;;;;;;;6176472;28;20413;-60
2023/05/18 14:50:36;;;;;;;6.53;2.38;;;;;;;;;;6176817;28;20050;-62
2023/05/18 14:53:37;;;;;;;4.40;2.10;;;;;;;;;;6178295;28;20524;-61
2023/05/18 14:56:38;;;;;;;8.82;2.53;;;;;;;;;;6175130;28;20077;-62
2023/05/18 14:59:38;;;;;;;5.82;2.20;;;;;;;;;;6172922;28;20086;-61
2023/05/18 15:02:39;;;;;;;7.63;2.53;;;;;;;;;;6177359;28;20053;-61
2023/05/18 15:05:40;;;;;;;7.72;3.35;;;;;;;;;;6173576;28;20054;-60
2023/05/18 15:08:41;;;;;;;7.87;3.23;;;;;;;;;;6176401;28;20127;-61
2023/05/18 15:11:41;;;;;;;12.25;4.82;;;;;;;;;;6176574;28;21485;-62
2023/05/18 15:14:42;;;;;;;11.52;4.72;;;;;;;;;;6176553;28;20570;-60
2023/05/18 15:17:43;;;;;;;8.82;4.40;;;;;;;;;;6173224;28;20058;-61
2023/05/18 15:20:45;;;;;;;12.63;5.10;;;;;;;;;;6173723;28;20050;-62
2023/05/18 15:23:45;;;;;;;;;;;;;;;;;;6173845;28;20058;-61
2023/05/18 15:26:46;;;;;;;11.05;5.82;;;;;;;;;;6171704;28;20322;-62
2023/05/18 15:29:47;;;;;;;9.80;4.65;;;;;;;;;;6172698;28;20053;-62
2023/05/18 15:32:48;;;;;;;9.18;4.20;;;;;;;;;;6174100;28;20420;-63
2023/05/18 15:35:48;;;;;;;8.82;4.32;;;;;;;;;;6188894;28;20128;-61
2023/05/18 15:38:49;;;;;;;7.90;3.85;;;;;;;;;;6174295;28;20054;-64
2023/05/18 15:41:49;;;;;;;9.07;4.30;;;;;;;;;;6175278;28;20476;-62
2023/05/18 15:44:50;;;;;;;6.95;3.58;;;;;;;;;;6171670;28;20054;-62
2023/05/18 15:47:50;;;;;;;7.20;3.17;;;;;;;;;;6175466;28;20595;-61
2023/05/18 15:50:51;;;;;;;7.05;3.00;;;;;;;;;;6171957;28;21736;-60
2023/05/18 15:53:52;;;;;;;7.93;3.28;;;;;;;;;;6174311;28;20053;-61
2023/05/18 15:56:53;;;;;;;8.00;3.00;;;;;;;;;;6172136;28;20056;-60
2023/05/18 15:59:54;;;;;;;5.50;3.00;;;;;;;;;;6171805;28;20054;-62
2023/05/18 16:02:55;;;;;;;7.60;3.95;;;;;;;;;;6174041;28;20054;-60
2023/05/18 16:05:56;;;;;;;7.72;3.70;;;;;;;;;;6174841;28;20542;-61
2023/05/18 16:08:57;;;;;;;7.80;4.27;;;;;;;;;;6172500;28;20038;-61
2023/05/18 16:11:57;;;;;;;7.45;3.50;;;;;;;;;;6173061;28;20038;-62
2023/05/18 16:14:58;;;;;;;7.30;4.10;;;;;;;;;;6169528;28;20053;-62
2023/05/18 16:17:58;;;;;;;6.93;2.70;;;;;;;;;;6177958;28;20042;-59
2023/05/18 16:20:59;;;;;;;7.30;3.00;;;;;;;;;;6179451;28;20275;-62
2023/05/18 16:24:00;;;;;;;10.90;4.47;;;;;;;;;;6180135;28;20054;-61
2023/05/18 16:27:01;;;;;;;9.35;4.20;;;;;;;;;;6177649;28;20192;-63
2023/05/18 16:30:02;;;;;;;8.65;4.03;;;;;;;;;;6179812;28;20038;-61
2023/05/18 16:33:02;;;;;;;7.65;3.50;;;;;;;;;;6180751;28;20047;-63
2023/05/18 16:36:04;;;;;;;12.60;5.78;;;;;;;;;;6178110;28;20501;-63
2023/05/18 16:39:06;;;;;;;11.13;4.82;;;;;;;;;;6176500;28;20046;-60
2023/05/18 16:42:08;;;;;;;8.32;3.88;;;;;;;;;;6181362;28;20133;-64
2023/05/18 16:45:09;;;;;;;10.05;4.53;;;;;;;;;;6180419;28;20475;-60
2023/05/18 16:48:09;;;;;;;7.85;3.55;;;;;;;;;;6180467;28;20045;-61
2023/05/18 16:51:10;;;;;;;12.32;6.15;;;;;;;;;;6182146;28;20052;-61
2023/05/18 16:54:11;;;;;;;15.45;8.45;;;;;;;;;;6180859;28;20054;-62
2023/05/18 16:57:12;;;;;;;32.08;15.93;;;;;;;;;;6179416;28;20046;-60
2023/05/18 17:00:12;;;;;;;17.08;10.60;;;;;;;;;;6179860;28;20558;-61
2023/05/18 17:03:15;;;;;;;15.48;7.78;;;;;;;;;;6185105;28;20674;-61
2023/05/18 17:06:18;;;;;;;10.77;5.53;;;;;;;;;;6185013;28;20663;-62
2023/05/18 17:09:19;;;;;;;10.32;5.00;;;;;;;;;;6185344;28;20054;-62
2023/05/18 17:12:20;;;;;;;10.70;4.70;;;;;;;;;;6186684;28;20497;-60
2023/05/18 17:15:21;;;;;;;11.07;4.93;;;;;;;;;;6184522;28;20500;-60
2023/05/18 17:18:21;;;;;;;8.05;4.10;;;;;;;;;;6184615;28;20061;-63
2023/05/18 17:21:22;;;;;;;7.63;4.18;;;;;;;;;;6187137;28;20043;-63
2023/05/18 17:24:23;;;;;;;8.63;4.10;;;;;;;;;;6184200;28;20840;-64
2023/05/18 17:27:23;;;;;;;11.07;4.78;;;;;;;;;;6188448;28;20072;-63
2023/05/18 17:30:24;;;;;;;9.68;4.90;;;;;;;;;;6192687;28;20059;-62
2023/05/18 17:33:25;;;;;;;8.82;4.30;;;;;;;;;;6191074;28;20180;-62
2023/05/18 17:36:25;;;;;;;9.88;4.45;;;;;;;;;;6188451;28;20510;-62
2023/05/18 17:39:26;;;;;;;10.60;4.68;;;;;;;;;;6190310;28;20046;-63
2023/05/18 17:42:27;;;;;;;10.85;4.75;;;;;;;;;;6194119;28;20042;-59
2023/05/18 17:45:28;;;;;;;10.80;5.93;;;;;;;;;;6191758;28;20050;-60
2023/05/18 17:48:28;;;;;;;9.38;5.72;;;;;;;;;;6193717;28;20066;-54
2023/05/18 17:51:30;;;;;;;10.88;4.80;;;;;;;;;;6189248;28;20490;-63
2023/05/18 17:54:31;;;;;;;8.43;4.60;;;;;;;;;;6190010;28;20045;-61
2023/05/18 17:57:32;;;;;;;7.88;4.20;;;;;;;;;;6187009;28;20048;-61
2023/05/18 18:00:33;;;;;;;9.73;4.65;;;;;;;;;;6192235;28;20541;-62